sensor_id;sensor_type;location;lat;lon;timestamp;P1;durP1;ratioP1;P2;durP2;ratioP2
70549;SDS011;58101;48.658;2.328;2023-05-03T00:01:48;10.13;;;3.83;;
70549;SDS011;58101;48.658;2.328;2023-05-03T00:04:15;9.00;;;4.13;;
70549;SDS011;58101;48.658;2.328;2023-05-03T00:06:44;9.60;;;4.50;;
70549;SDS011;58101;48.658;2.328;2023-05-03T00:09:10;10.80;;;4.20;;
70549;SDS011;58101;48.658;2.328;2023-05-03T00:11:56;9.23;;;4.22;;
70549;SDS011;58101;48.658;2.328;2023-05-03T00:14:24;9.32;;;3.83;;
70549;SDS011;58101;48.658;2.328;2023-05-03T00:16:53;10.68;;;3.80;;
70549;SDS011;58101;48.658;2.328;2023-05-03T00:19:25;8.65;;;3.80;;
70549;SDS011;58101;48.658;2.328;2023-05-03T00:21:51;10.15;;;3.83;;
70549;SDS011;58101;48.658;2.328;2023-05-03T00:24:20;9.23;;;3.95;;
70549;SDS011;58101;48.658;2.328;2023-05-03T00:26:52;10.38;;;3.78;;
70549;SDS011;58101;48.658;2.328;2023-05-03T00:29:20;9.90;;;3.72;;
70549;SDS011;58101;48.658;2.328;2023-05-03T00:32:04;9.23;;;3.80;;
70549;SDS011;58101;48.658;2.328;2023-05-03T00:34:30;12.18;;;3.70;;
70549;SDS011;58101;48.658;2.328;2023-05-03T00:36:56;10.88;;;3.70;;
70549;SDS011;58101;48.658;2.328;2023-05-03T00:39:21;12.05;;;4.10;;
70549;SDS011;58101;48.658;2.328;2023-05-03T00:41:49;10.02;;;3.80;;
70549;SDS011;58101;48.658;2.328;2023-05-03T00:44:20;10.45;;;3.85;;
70549;SDS011;58101;48.658;2.328;2023-05-03T00:49:41;9.70;;;4.00;;
70549;SDS011;58101;48.658;2.328;2023-05-03T00:52:14;9.38;;;3.97;;
70549;SDS011;58101;48.658;2.328;2023-05-03T00:54:47;11.50;;;4.22;;
70549;SDS011;58101;48.658;2.328;2023-05-03T00:57:36;11.13;;;4.05;;
70549;SDS011;58101;48.658;2.328;2023-05-03T01:00:03;9.15;;;3.75;;
70549;SDS011;58101;48.658;2.328;2023-05-03T01:02:31;8.43;;;3.70;;
70549;SDS011;58101;48.658;2.328;2023-05-03T01:05:07;10.38;;;4.03;;
70549;SDS011;58101;48.658;2.328;2023-05-03T01:10:54;10.93;;;3.80;;
70549;SDS011;58101;48.658;2.328;2023-05-03T01:13:54;11.85;;;3.95;;
70549;SDS011;58101;48.658;2.328;2023-05-03T01:16:39;12.25;;;3.90;;
70549;SDS011;58101;48.658;2.328;2023-05-03T01:24:43;9.57;;;3.60;;
70549;SDS011;58101;48.658;2.328;2023-05-03T01:27:12;8.43;;;3.65;;
70549;SDS011;58101;48.658;2.328;2023-05-03T01:29:37;11.32;;;3.50;;
70549;SDS011;58101;48.658;2.328;2023-05-03T01:32:04;8.18;;;3.83;;
70549;SDS011;58101;48.658;2.328;2023-05-03T01:37:39;11.32;;;3.70;;
70549;SDS011;58101;48.658;2.328;2023-05-03T01:40:07;9.63;;;3.72;;
70549;SDS011;58101;48.658;2.328;2023-05-03T01:42:46;8.10;;;3.60;;
70549;SDS011;58101;48.658;2.328;2023-05-03T01:45:13;11.57;;;3.75;;
70549;SDS011;58101;48.658;2.328;2023-05-03T01:47:39;9.45;;;3.70;;
70549;SDS011;58101;48.658;2.328;2023-05-03T01:50:04;12.93;;;4.00;;
70549;SDS011;58101;48.658;2.328;2023-05-03T01:52:30;12.90;;;4.03;;
70549;SDS011;58101;48.658;2.328;2023-05-03T01:54:56;9.75;;;3.72;;
70549;SDS011;58101;48.658;2.328;2023-05-03T01:57:22;10.45;;;3.95;;
70549;SDS011;58101;48.658;2.328;2023-05-03T01:59:48;8.10;;;3.70;;
70549;SDS011;58101;48.658;2.328;2023-05-03T02:02:13;8.82;;;3.53;;
70549;SDS011;58101;48.658;2.328;2023-05-03T02:04:39;9.75;;;3.80;;
70549;SDS011;58101;48.658;2.328;2023-05-03T02:07:05;9.98;;;3.50;;
70549;SDS011;58101;48.658;2.328;2023-05-03T02:09:30;10.77;;;3.75;;
70549;SDS011;58101;48.658;2.328;2023-05-03T02:11:56;9.45;;;3.72;;
70549;SDS011;58101;48.658;2.328;2023-05-03T02:14:21;10.60;;;3.80;;
70549;SDS011;58101;48.658;2.328;2023-05-03T02:16:48;10.68;;;3.72;;
70549;SDS011;58101;48.658;2.328;2023-05-03T02:19:13;9.48;;;3.97;;
70549;SDS011;58101;48.658;2.328;2023-05-03T02:21:49;12.43;;;3.92;;
70549;SDS011;58101;48.658;2.328;2023-05-03T02:24:20;9.45;;;4.22;;
70549;SDS011;58101;48.658;2.328;2023-05-03T02:26:55;13.02;;;4.10;;
70549;SDS011;58101;48.658;2.328;2023-05-03T02:29:21;12.70;;;4.30;;
70549;SDS011;58101;48.658;2.328;2023-05-03T02:31:47;10.88;;;3.75;;
70549;SDS011;58101;48.658;2.328;2023-05-03T02:34:13;11.05;;;4.38;;
70549;SDS011;58101;48.658;2.328;2023-05-03T02:36:50;11.30;;;4.18;;
70549;SDS011;58101;48.658;2.328;2023-05-03T02:39:19;12.45;;;4.40;;
70549;SDS011;58101;48.658;2.328;2023-05-03T02:41:48;12.90;;;4.40;;
70549;SDS011;58101;48.658;2.328;2023-05-03T02:44:19;15.30;;;4.95;;
70549;SDS011;58101;48.658;2.328;2023-05-03T02:46:54;9.80;;;4.10;;
70549;SDS011;58101;48.658;2.328;2023-05-03T02:52:14;13.18;;;4.50;;
70549;SDS011;58101;48.658;2.328;2023-05-03T02:54:40;10.95;;;4.22;;
70549;SDS011;58101;48.658;2.328;2023-05-03T02:57:08;10.10;;;4.22;;
70549;SDS011;58101;48.658;2.328;2023-05-03T02:59:50;11.55;;;4.75;;
70549;SDS011;58101;48.658;2.328;2023-05-03T03:02:16;12.52;;;4.60;;
70549;SDS011;58101;48.658;2.328;2023-05-03T03:04:51;13.10;;;4.30;;
70549;SDS011;58101;48.658;2.328;2023-05-03T03:07:16;12.27;;;4.55;;
70549;SDS011;58101;48.658;2.328;2023-05-03T03:09:51;13.73;;;4.68;;
70549;SDS011;58101;48.658;2.328;2023-05-03T03:12:50;15.68;;;4.47;;
70549;SDS011;58101;48.658;2.328;2023-05-03T03:15:14;11.85;;;4.50;;
70549;SDS011;58101;48.658;2.328;2023-05-03T03:17:49;11.98;;;4.60;;
70549;SDS011;58101;48.658;2.328;2023-05-03T03:20:14;11.93;;;4.75;;
70549;SDS011;58101;48.658;2.328;2023-05-03T03:22:40;13.45;;;4.85;;
70549;SDS011;58101;48.658;2.328;2023-05-03T03:25:10;12.57;;;4.82;;
70549;SDS011;58101;48.658;2.328;2023-05-03T03:27:36;9.98;;;4.57;;
70549;SDS011;58101;48.658;2.328;2023-05-03T03:30:02;14.00;;;4.95;;
70549;SDS011;58101;48.658;2.328;2023-05-03T03:35:31;11.02;;;4.63;;
70549;SDS011;58101;48.658;2.328;2023-05-03T03:38:06;12.13;;;4.57;;
70549;SDS011;58101;48.658;2.328;2023-05-03T03:40:47;11.00;;;4.57;;
70549;SDS011;58101;48.658;2.328;2023-05-03T03:43:15;12.95;;;4.93;;
70549;SDS011;58101;48.658;2.328;2023-05-03T03:45:43;11.43;;;4.55;;
70549;SDS011;58101;48.658;2.328;2023-05-03T03:48:09;11.95;;;4.38;;
70549;SDS011;58101;48.658;2.328;2023-05-03T04:07:11;14.18;;;5.40;;
70549;SDS011;58101;48.658;2.328;2023-05-03T04:10:01;13.15;;;5.10;;
70549;SDS011;58101;48.658;2.328;2023-05-03T04:25:18;14.40;;;5.28;;
70549;SDS011;58101;48.658;2.328;2023-05-03T04:27:46;15.20;;;5.07;;
70549;SDS011;58101;48.658;2.328;2023-05-03T04:30:18;17.42;;;5.78;;
70549;SDS011;58101;48.658;2.328;2023-05-03T04:32:44;14.40;;;5.55;;
70549;SDS011;58101;48.658;2.328;2023-05-03T04:42:22;15.15;;;5.45;;
70549;SDS011;58101;48.658;2.328;2023-05-03T04:44:49;14.98;;;5.47;;
70549;SDS011;58101;48.658;2.328;2023-05-03T04:47:28;15.23;;;5.70;;
70549;SDS011;58101;48.658;2.328;2023-05-03T04:50:19;15.45;;;5.35;;
70549;SDS011;58101;48.658;2.328;2023-05-03T04:52:48;15.32;;;5.40;;
70549;SDS011;58101;48.658;2.328;2023-05-03T04:55:33;14.02;;;5.30;;
70549;SDS011;58101;48.658;2.328;2023-05-03T05:03:54;17.08;;;5.82;;
70549;SDS011;58101;48.658;2.328;2023-05-03T05:06:21;17.00;;;6.32;;
70549;SDS011;58101;48.658;2.328;2023-05-03T05:12:14;17.13;;;5.78;;
70549;SDS011;58101;48.658;2.328;2023-05-03T05:14:55;16.98;;;5.63;;
70549;SDS011;58101;48.658;2.328;2023-05-03T05:17:24;14.35;;;5.53;;
70549;SDS011;58101;48.658;2.328;2023-05-03T05:23:07;17.50;;;5.43;;
70549;SDS011;58101;48.658;2.328;2023-05-03T05:25:41;18.80;;;5.50;;
70549;SDS011;58101;48.658;2.328;2023-05-03T05:34:20;18.05;;;6.00;;
70549;SDS011;58101;48.658;2.328;2023-05-03T05:36:49;14.23;;;5.43;;
70549;SDS011;58101;48.658;2.328;2023-05-03T05:39:22;16.55;;;6.05;;
70549;SDS011;58101;48.658;2.328;2023-05-03T05:50:46;14.77;;;5.43;;
70549;SDS011;58101;48.658;2.328;2023-05-03T05:58:56;14.25;;;5.25;;
70549;SDS011;58101;48.658;2.328;2023-05-03T06:16:36;12.98;;;5.07;;
70549;SDS011;58101;48.658;2.328;2023-05-03T06:19:20;14.85;;;5.57;;
70549;SDS011;58101;48.658;2.328;2023-05-03T06:22:04;14.13;;;4.80;;
70549;SDS011;58101;48.658;2.328;2023-05-03T06:27:24;13.77;;;4.82;;
70549;SDS011;58101;48.658;2.328;2023-05-03T06:36:09;16.92;;;5.13;;
70549;SDS011;58101;48.658;2.328;2023-05-03T06:41:29;18.20;;;5.18;;
70549;SDS011;58101;48.658;2.328;2023-05-03T06:47:21;17.77;;;5.20;;
70549;SDS011;58101;48.658;2.328;2023-05-03T06:49:47;12.85;;;4.82;;
70549;SDS011;58101;48.658;2.328;2023-05-03T06:52:15;14.35;;;5.05;;
70549;SDS011;58101;48.658;2.328;2023-05-03T06:58:04;13.80;;;4.93;;
70549;SDS011;58101;48.658;2.328;2023-05-03T07:00:34;12.98;;;4.60;;
70549;SDS011;58101;48.658;2.328;2023-05-03T07:03:00;14.55;;;4.53;;
70549;SDS011;58101;48.658;2.328;2023-05-03T07:08:29;12.68;;;4.68;;
70549;SDS011;58101;48.658;2.328;2023-05-03T07:11:18;15.23;;;5.28;;
70549;SDS011;58101;48.658;2.328;2023-05-03T07:14:00;16.55;;;5.13;;
70549;SDS011;58101;48.658;2.328;2023-05-03T07:19:25;15.50;;;4.72;;
70549;SDS011;58101;48.658;2.328;2023-05-03T07:31:33;15.07;;;4.72;;
70549;SDS011;58101;48.658;2.328;2023-05-03T07:33:59;12.07;;;4.78;;
70549;SDS011;58101;48.658;2.328;2023-05-03T07:36:25;13.10;;;4.55;;
70549;SDS011;58101;48.658;2.328;2023-05-03T07:38:51;12.27;;;4.45;;
70549;SDS011;58101;48.658;2.328;2023-05-03T07:41:29;11.45;;;4.55;;
70549;SDS011;58101;48.658;2.328;2023-05-03T07:43:55;11.63;;;4.10;;
70549;SDS011;58101;48.658;2.328;2023-05-03T07:46:21;11.38;;;4.30;;
70549;SDS011;58101;48.658;2.328;2023-05-03T07:49:05;12.15;;;4.60;;
70549;SDS011;58101;48.658;2.328;2023-05-03T07:51:37;11.13;;;4.07;;
70549;SDS011;58101;48.658;2.328;2023-05-03T07:54:03;10.77;;;4.00;;
70549;SDS011;58101;48.658;2.328;2023-05-03T07:56:45;11.95;;;4.40;;
70549;SDS011;58101;48.658;2.328;2023-05-03T07:59:32;11.27;;;4.20;;
70549;SDS011;58101;48.658;2.328;2023-05-03T08:01:58;12.55;;;4.50;;
70549;SDS011;58101;48.658;2.328;2023-05-03T08:04:27;12.73;;;4.32;;
70549;SDS011;58101;48.658;2.328;2023-05-03T08:06:54;12.05;;;4.30;;
70549;SDS011;58101;48.658;2.328;2023-05-03T08:09:23;11.32;;;4.00;;
70549;SDS011;58101;48.658;2.328;2023-05-03T08:11:49;10.77;;;4.30;;
70549;SDS011;58101;48.658;2.328;2023-05-03T08:14:14;9.43;;;3.75;;
70549;SDS011;58101;48.658;2.328;2023-05-03T08:20:00;11.13;;;4.15;;
70549;SDS011;58101;48.658;2.328;2023-05-03T08:22:28;12.05;;;4.25;;
70549;SDS011;58101;48.658;2.328;2023-05-03T08:24:54;12.52;;;3.88;;
70549;SDS011;58101;48.658;2.328;2023-05-03T08:27:20;10.25;;;3.70;;
70549;SDS011;58101;48.658;2.328;2023-05-03T08:29:46;9.63;;;3.80;;
70549;SDS011;58101;48.658;2.328;2023-05-03T08:32:14;11.25;;;3.33;;
70549;SDS011;58101;48.658;2.328;2023-05-03T08:34:43;8.60;;;3.80;;
70549;SDS011;58101;48.658;2.328;2023-05-03T08:37:11;10.50;;;3.78;;
70549;SDS011;58101;48.658;2.328;2023-05-03T08:42:44;8.95;;;3.70;;
70549;SDS011;58101;48.658;2.328;2023-05-03T08:45:14;8.70;;;3.47;;
70549;SDS011;58101;48.658;2.328;2023-05-03T08:47:43;9.82;;;4.00;;
70549;SDS011;58101;48.658;2.328;2023-05-03T08:50:10;9.48;;;3.40;;
70549;SDS011;58101;48.658;2.328;2023-05-03T08:52:46;10.00;;;3.78;;
70549;SDS011;58101;48.658;2.328;2023-05-03T08:55:12;11.30;;;3.50;;
70549;SDS011;58101;48.658;2.328;2023-05-03T08:57:40;9.02;;;3.78;;
70549;SDS011;58101;48.658;2.328;2023-05-03T09:00:06;7.57;;;3.15;;
70549;SDS011;58101;48.658;2.328;2023-05-03T09:02:39;8.80;;;3.33;;
70549;SDS011;58101;48.658;2.328;2023-05-03T09:08:26;9.23;;;3.47;;
70549;SDS011;58101;48.658;2.328;2023-05-03T09:10:52;8.77;;;3.30;;
70549;SDS011;58101;48.658;2.328;2023-05-03T09:13:17;8.85;;;3.00;;
70549;SDS011;58101;48.658;2.328;2023-05-03T09:15:46;8.15;;;2.90;;
70549;SDS011;58101;48.658;2.328;2023-05-03T09:18:34;9.30;;;3.10;;
70549;SDS011;58101;48.658;2.328;2023-05-03T09:23:44;7.38;;;3.00;;
70549;SDS011;58101;48.658;2.328;2023-05-03T09:26:10;8.40;;;3.17;;
70549;SDS011;58101;48.658;2.328;2023-05-03T09:28:39;6.95;;;3.17;;
70549;SDS011;58101;48.658;2.328;2023-05-03T09:31:10;7.97;;;3.10;;
70549;SDS011;58101;48.658;2.328;2023-05-03T09:33:38;6.40;;;2.72;;
70549;SDS011;58101;48.658;2.328;2023-05-03T09:39:17;8.18;;;3.10;;
70549;SDS011;58101;48.658;2.328;2023-05-03T09:41:43;8.63;;;3.35;;
70549;SDS011;58101;48.658;2.328;2023-05-03T09:44:09;7.55;;;2.78;;
70549;SDS011;58101;48.658;2.328;2023-05-03T09:49:39;8.07;;;2.95;;
70549;SDS011;58101;48.658;2.328;2023-05-03T09:52:05;8.63;;;4.75;;
70549;SDS011;58101;48.658;2.328;2023-05-03T09:54:32;9.70;;;3.80;;
70549;SDS011;58101;48.658;2.328;2023-05-03T09:57:02;7.97;;;3.00;;
70549;SDS011;58101;48.658;2.328;2023-05-03T09:59:33;9.70;;;3.80;;
70549;SDS011;58101;48.658;2.328;2023-05-03T10:02:04;7.32;;;3.13;;
70549;SDS011;58101;48.658;2.328;2023-05-03T10:04:40;7.85;;;3.00;;
70549;SDS011;58101;48.658;2.328;2023-05-03T10:07:12;7.95;;;2.85;;
70549;SDS011;58101;48.658;2.328;2023-05-03T10:09:42;8.68;;;2.90;;
70549;SDS011;58101;48.658;2.328;2023-05-03T10:12:09;8.05;;;3.35;;
70549;SDS011;58101;48.658;2.328;2023-05-03T10:14:43;21.52;;;11.50;;
70549;SDS011;58101;48.658;2.328;2023-05-03T10:17:19;8.13;;;3.78;;
70549;SDS011;58101;48.658;2.328;2023-05-03T10:19:52;9.10;;;4.20;;
70549;SDS011;58101;48.658;2.328;2023-05-03T10:30:52;8.63;;;3.15;;
70549;SDS011;58101;48.658;2.328;2023-05-03T10:39:06;7.55;;;3.22;;
70549;SDS011;58101;48.658;2.328;2023-05-03T10:47:33;6.85;;;2.45;;
70549;SDS011;58101;48.658;2.328;2023-05-03T10:52:44;7.95;;;3.15;;
70549;SDS011;58101;48.658;2.328;2023-05-03T10:55:12;8.10;;;3.22;;
70549;SDS011;58101;48.658;2.328;2023-05-03T10:57:42;7.80;;;3.10;;
70549;SDS011;58101;48.658;2.328;2023-05-03T11:00:19;9.30;;;3.95;;
70549;SDS011;58101;48.658;2.328;2023-05-03T11:05:57;8.85;;;3.40;;
70549;SDS011;58101;48.658;2.328;2023-05-03T11:08:23;8.32;;;3.00;;
70549;SDS011;58101;48.658;2.328;2023-05-03T11:11:00;7.75;;;3.10;;
70549;SDS011;58101;48.658;2.328;2023-05-03T15:45:02;7.57;;;2.60;;
70549;SDS011;58101;48.658;2.328;2023-05-03T15:48:09;8.07;;;2.50;;
70549;SDS011;58101;48.658;2.328;2023-05-03T15:51:16;8.23;;;2.10;;
70549;SDS011;58101;48.658;2.328;2023-05-03T15:53:44;8.57;;;2.28;;
70549;SDS011;58101;48.658;2.328;2023-05-03T15:56:10;5.82;;;2.13;;
70549;SDS011;58101;48.658;2.328;2023-05-03T16:01:44;7.95;;;2.25;;
70549;SDS011;58101;48.658;2.328;2023-05-03T16:04:12;7.75;;;2.00;;
70549;SDS011;58101;48.658;2.328;2023-05-03T16:19:28;7.50;;;1.92;;
70549;SDS011;58101;48.658;2.328;2023-05-03T16:25:27;6.22;;;2.10;;
70549;SDS011;58101;48.658;2.328;2023-05-03T16:30:55;7.05;;;2.25;;
70549;SDS011;58101;48.658;2.328;2023-05-03T16:33:38;6.68;;;1.92;;
70549;SDS011;58101;48.658;2.328;2023-05-03T16:36:09;7.03;;;2.25;;
70549;SDS011;58101;48.658;2.328;2023-05-03T16:42:19;6.32;;;1.98;;
70549;SDS011;58101;48.658;2.328;2023-05-03T16:48:31;7.32;;;1.95;;
70549;SDS011;58101;48.658;2.328;2023-05-03T16:54:22;8.00;;;2.80;;
70549;SDS011;58101;48.658;2.328;2023-05-03T16:56:57;8.85;;;2.95;;
70549;SDS011;58101;48.658;2.328;2023-05-03T17:02:49;10.35;;;3.90;;
70549;SDS011;58101;48.658;2.328;2023-05-03T17:08:45;7.95;;;3.10;;
70549;SDS011;58101;48.658;2.328;2023-05-03T17:11:44;6.60;;;2.00;;
70549;SDS011;58101;48.658;2.328;2023-05-03T19:03:15;7.45;;;2.17;;
70549;SDS011;58101;48.658;2.328;2023-05-03T19:05:47;6.22;;;2.47;;
70549;SDS011;58101;48.658;2.328;2023-05-03T19:08:12;7.32;;;2.30;;
70549;SDS011;58101;48.658;2.328;2023-05-03T19:10:56;10.75;;;2.20;;
70549;SDS011;58101;48.658;2.328;2023-05-03T19:13:42;5.85;;;2.00;;
70549;SDS011;58101;48.658;2.328;2023-05-03T19:16:14;7.05;;;2.22;;
70549;SDS011;58101;48.658;2.328;2023-05-03T19:18:52;6.85;;;2.10;;
70549;SDS011;58101;48.658;2.328;2023-05-03T19:23:51;6.57;;;2.30;;
70549;SDS011;58101;48.658;2.328;2023-05-03T19:26:17;7.57;;;2.17;;
70549;SDS011;58101;48.658;2.328;2023-05-03T19:28:45;8.27;;;2.20;;
70549;SDS011;58101;48.658;2.328;2023-05-03T19:31:13;6.63;;;2.25;;
70549;SDS011;58101;48.658;2.328;2023-05-03T19:33:48;6.80;;;2.10;;
70549;SDS011;58101;48.658;2.328;2023-05-03T19:36:15;8.05;;;2.55;;
70549;SDS011;58101;48.658;2.328;2023-05-03T19:38:44;6.43;;;2.08;;
70549;SDS011;58101;48.658;2.328;2023-05-03T19:41:13;7.07;;;2.40;;
70549;SDS011;58101;48.658;2.328;2023-05-03T19:46:57;7.75;;;2.30;;
70549;SDS011;58101;48.658;2.328;2023-05-03T19:49:34;8.88;;;2.72;;
70549;SDS011;58101;48.658;2.328;2023-05-03T19:52:00;8.70;;;2.40;;
70549;SDS011;58101;48.658;2.328;2023-05-03T19:54:32;8.80;;;2.60;;
70549;SDS011;58101;48.658;2.328;2023-05-03T19:57:13;7.40;;;2.33;;
70549;SDS011;58101;48.658;2.328;2023-05-03T20:02:34;6.63;;;2.10;;
70549;SDS011;58101;48.658;2.328;2023-05-03T20:05:11;8.00;;;2.10;;
70549;SDS011;58101;48.658;2.328;2023-05-03T20:07:46;9.57;;;2.47;;
70549;SDS011;58101;48.658;2.328;2023-05-03T20:10:22;7.30;;;2.25;;
70549;SDS011;58101;48.658;2.328;2023-05-03T20:12:52;5.93;;;2.28;;
70549;SDS011;58101;48.658;2.328;2023-05-03T20:15:18;7.72;;;2.35;;
70549;SDS011;58101;48.658;2.328;2023-05-03T20:17:43;7.95;;;2.17;;
70549;SDS011;58101;48.658;2.328;2023-05-03T20:20:13;7.47;;;2.38;;
70549;SDS011;58101;48.658;2.328;2023-05-03T20:22:39;6.68;;;2.28;;
70549;SDS011;58101;48.658;2.328;2023-05-03T20:25:05;6.28;;;2.10;;
70549;SDS011;58101;48.658;2.328;2023-05-03T20:27:31;6.88;;;2.17;;
70549;SDS011;58101;48.658;2.328;2023-05-03T20:29:56;6.32;;;2.10;;
70549;SDS011;58101;48.658;2.328;2023-05-03T20:32:22;7.65;;;2.15;;
70549;SDS011;58101;48.658;2.328;2023-05-03T20:34:48;5.85;;;2.00;;
70549;SDS011;58101;48.658;2.328;2023-05-03T20:37:13;7.45;;;2.92;;
70549;SDS011;58101;48.658;2.328;2023-05-03T20:39:39;6.57;;;2.28;;
70549;SDS011;58101;48.658;2.328;2023-05-03T20:42:04;7.45;;;2.33;;
70549;SDS011;58101;48.658;2.328;2023-05-03T20:44:31;6.07;;;2.30;;
70549;SDS011;58101;48.658;2.328;2023-05-03T20:46:56;7.80;;;2.42;;
70549;SDS011;58101;48.658;2.328;2023-05-03T20:49:22;7.15;;;2.35;;
70549;SDS011;58101;48.658;2.328;2023-05-03T20:51:48;6.40;;;2.35;;
70549;SDS011;58101;48.658;2.328;2023-05-03T20:54:13;6.00;;;2.30;;
70549;SDS011;58101;48.658;2.328;2023-05-03T20:56:39;6.55;;;2.10;;
70549;SDS011;58101;48.658;2.328;2023-05-03T20:59:05;7.50;;;2.15;;
70549;SDS011;58101;48.658;2.328;2023-05-03T21:01:30;7.93;;;2.22;;
70549;SDS011;58101;48.658;2.328;2023-05-03T21:03:57;6.65;;;2.60;;
70549;SDS011;58101;48.658;2.328;2023-05-03T21:06:22;6.05;;;2.20;;
70549;SDS011;58101;48.658;2.328;2023-05-03T21:08:48;6.80;;;2.17;;
70549;SDS011;58101;48.658;2.328;2023-05-03T21:11:17;10.75;;;2.50;;
70549;SDS011;58101;48.658;2.328;2023-05-03T21:13:44;7.47;;;2.28;;
70549;SDS011;58101;48.658;2.328;2023-05-03T21:16:12;6.45;;;2.05;;
70549;SDS011;58101;48.658;2.328;2023-05-03T21:18:47;7.07;;;2.30;;
70549;SDS011;58101;48.658;2.328;2023-05-03T21:21:12;8.07;;;2.35;;
70549;SDS011;58101;48.658;2.328;2023-05-03T21:23:39;9.00;;;2.63;;
70549;SDS011;58101;48.658;2.328;2023-05-03T21:26:04;8.30;;;2.42;;
70549;SDS011;58101;48.658;2.328;2023-05-03T21:28:30;6.72;;;2.13;;
70549;SDS011;58101;48.658;2.328;2023-05-03T21:30:56;9.63;;;2.30;;
70549;SDS011;58101;48.658;2.328;2023-05-03T21:36:15;7.65;;;2.50;;
70549;SDS011;58101;48.658;2.328;2023-05-03T21:38:54;6.75;;;2.20;;
70549;SDS011;58101;48.658;2.328;2023-05-03T21:41:19;6.40;;;2.00;;
70549;SDS011;58101;48.658;2.328;2023-05-03T21:43:45;6.63;;;2.30;;
70549;SDS011;58101;48.658;2.328;2023-05-03T21:46:11;6.78;;;2.50;;
70549;SDS011;58101;48.658;2.328;2023-05-03T21:48:36;8.60;;;2.33;;
70549;SDS011;58101;48.658;2.328;2023-05-03T21:51:04;7.32;;;2.22;;
70549;SDS011;58101;48.658;2.328;2023-05-03T21:53:32;6.55;;;2.05;;
70549;SDS011;58101;48.658;2.328;2023-05-03T21:55:59;6.22;;;2.35;;
70549;SDS011;58101;48.658;2.328;2023-05-03T21:58:25;7.10;;;2.13;;
70549;SDS011;58101;48.658;2.328;2023-05-03T22:00:50;7.47;;;2.20;;
70549;SDS011;58101;48.658;2.328;2023-05-03T22:03:16;6.25;;;2.10;;
70549;SDS011;58101;48.658;2.328;2023-05-03T22:05:42;6.85;;;2.05;;
70549;SDS011;58101;48.658;2.328;2023-05-03T22:08:12;6.38;;;2.20;;
70549;SDS011;58101;48.658;2.328;2023-05-03T22:10:44;7.55;;;2.28;;
70549;SDS011;58101;48.658;2.328;2023-05-03T22:13:19;6.82;;;2.30;;
70549;SDS011;58101;48.658;2.328;2023-05-03T22:15:48;8.18;;;2.22;;
70549;SDS011;58101;48.658;2.328;2023-05-03T22:18:14;6.00;;;2.20;;
70549;SDS011;58101;48.658;2.328;2023-05-03T22:20:49;7.38;;;2.50;;
70549;SDS011;58101;48.658;2.328;2023-05-03T22:23:15;8.52;;;2.30;;
70549;SDS011;58101;48.658;2.328;2023-05-03T22:25:59;7.13;;;2.25;;
70549;SDS011;58101;48.658;2.328;2023-05-03T22:28:25;6.07;;;2.20;;
70549;SDS011;58101;48.658;2.328;2023-05-03T22:30:50;8.45;;;2.47;;
70549;SDS011;58101;48.658;2.328;2023-05-03T22:33:16;5.97;;;1.98;;
70549;SDS011;58101;48.658;2.328;2023-05-03T22:35:42;7.68;;;2.42;;
70549;SDS011;58101;48.658;2.328;2023-05-03T22:38:07;7.55;;;2.40;;
70549;SDS011;58101;48.658;2.328;2023-05-03T22:40:33;7.82;;;2.65;;
70549;SDS011;58101;48.658;2.328;2023-05-03T22:42:59;7.38;;;2.13;;
70549;SDS011;58101;48.658;2.328;2023-05-03T22:45:25;7.22;;;2.30;;
70549;SDS011;58101;48.658;2.328;2023-05-03T22:47:51;7.13;;;2.50;;
70549;SDS011;58101;48.658;2.328;2023-05-03T22:50:17;6.25;;;2.35;;
70549;SDS011;58101;48.658;2.328;2023-05-03T22:52:45;6.25;;;2.33;;
70549;SDS011;58101;48.658;2.328;2023-05-03T22:55:11;6.00;;;2.22;;
70549;SDS011;58101;48.658;2.328;2023-05-03T22:57:37;7.05;;;2.42;;
70549;SDS011;58101;48.658;2.328;2023-05-03T23:02:58;6.82;;;2.50;;
70549;SDS011;58101;48.658;2.328;2023-05-03T23:05:30;6.47;;;2.40;;
70549;SDS011;58101;48.658;2.328;2023-05-03T23:07:56;7.78;;;2.60;;
70549;SDS011;58101;48.658;2.328;2023-05-03T23:10:22;7.28;;;2.30;;
70549;SDS011;58101;48.658;2.328;2023-05-03T23:12:56;10.20;;;2.60;;
70549;SDS011;58101;48.658;2.328;2023-05-03T23:15:26;6.72;;;2.33;;
70549;SDS011;58101;48.658;2.328;2023-05-03T23:17:52;6.70;;;2.40;;
70549;SDS011;58101;48.658;2.328;2023-05-03T23:20:29;8.15;;;2.40;;
70549;SDS011;58101;48.658;2.328;2023-05-03T23:22:56;7.03;;;2.47;;
70549;SDS011;58101;48.658;2.328;2023-05-03T23:25:21;9.27;;;2.92;;
70549;SDS011;58101;48.658;2.328;2023-05-03T23:27:47;6.22;;;2.40;;
70549;SDS011;58101;48.658;2.328;2023-05-03T23:30:13;7.40;;;2.45;;
70549;SDS011;58101;48.658;2.328;2023-05-03T23:32:39;9.70;;;2.60;;
70549;SDS011;58101;48.658;2.328;2023-05-03T23:35:05;8.18;;;2.40;;
70549;SDS011;58101;48.658;2.328;2023-05-03T23:37:52;9.07;;;2.20;;
70549;SDS011;58101;48.658;2.328;2023-05-03T23:40:20;10.13;;;3.05;;
70549;SDS011;58101;48.658;2.328;2023-05-03T23:42:45;10.93;;;3.53;;
70549;SDS011;58101;48.658;2.328;2023-05-03T23:45:13;16.42;;;5.78;;
70549;SDS011;58101;48.658;2.328;2023-05-03T23:47:39;28.75;;;13.02;;
70549;SDS011;58101;48.658;2.328;2023-05-03T23:50:05;27.38;;;13.05;;
70549;SDS011;58101;48.658;2.328;2023-05-03T23:52:31;24.30;;;11.70;;
70549;SDS011;58101;48.658;2.328;2023-05-03T23:54:57;16.85;;;6.60;;
70549;SDS011;58101;48.658;2.328;2023-05-03T23:57:23;12.35;;;4.90;;
70549;SDS011;58101;48.658;2.328;2023-05-03T23:59:48;9.23;;;3.42;;
